sensor_id;sensor_type;location;lat;lon;timestamp;P1;durP1;ratioP1;P2;durP2;ratioP2
35606;SDS011;21729;58.392;15.656;2024-03-23T00:53:54;10.00;;;2.20;;
35606;SDS011;21729;58.392;15.656;2024-03-23T00:56:21;15.05;;;2.55;;
35606;SDS011;21729;58.392;15.656;2024-03-23T00:58:47;11.43;;;2.40;;
35606;SDS011;21729;58.392;15.656;2024-03-23T01:01:15;14.70;;;2.47;;
35606;SDS011;21729;58.392;15.656;2024-03-23T01:03:41;9.93;;;2.13;;
35606;SDS011;21729;58.392;15.656;2024-03-23T01:06:08;10.20;;;2.10;;
35606;SDS011;21729;58.392;15.656;2024-03-23T01:08:34;14.70;;;2.70;;
35606;SDS011;21729;58.392;15.656;2024-03-23T01:11:02;13.20;;;2.30;;
35606;SDS011;21729;58.392;15.656;2024-03-23T01:13:29;8.48;;;2.50;;
35606;SDS011;21729;58.392;15.656;2024-03-23T01:15:56;10.85;;;2.10;;
35606;SDS011;21729;58.392;15.656;2024-03-23T01:18:23;12.15;;;2.50;;
35606;SDS011;21729;58.392;15.656;2024-03-23T01:20:51;13.13;;;2.67;;
35606;SDS011;21729;58.392;15.656;2024-03-23T01:23:17;10.68;;;2.17;;
35606;SDS011;21729;58.392;15.656;2024-03-23T01:25:51;9.90;;;2.17;;
35606;SDS011;21729;58.392;15.656;2024-03-23T01:28:18;9.70;;;1.83;;
35606;SDS011;21729;58.392;15.656;2024-03-23T01:30:46;12.90;;;2.03;;
35606;SDS011;21729;58.392;15.656;2024-03-23T01:33:12;12.02;;;2.38;;
35606;SDS011;21729;58.392;15.656;2024-03-23T01:35:39;12.88;;;2.63;;
35606;SDS011;21729;58.392;15.656;2024-03-23T01:38:06;11.77;;;2.33;;
35606;SDS011;21729;58.392;15.656;2024-03-23T01:40:33;11.77;;;2.25;;
35606;SDS011;21729;58.392;15.656;2024-03-23T01:43:03;11.13;;;2.50;;
35606;SDS011;21729;58.392;15.656;2024-03-23T01:45:34;12.23;;;2.83;;
35606;SDS011;21729;58.392;15.656;2024-03-23T01:48:01;13.23;;;2.78;;
35606;SDS011;21729;58.392;15.656;2024-03-23T01:50:29;14.80;;;2.67;;
35606;SDS011;21729;58.392;15.656;2024-03-23T01:52:58;10.80;;;2.00;;
35606;SDS011;21729;58.392;15.656;2024-03-23T01:55:26;13.02;;;2.72;;
35606;SDS011;21729;58.392;15.656;2024-03-23T01:57:52;10.02;;;2.45;;
35606;SDS011;21729;58.392;15.656;2024-03-23T02:00:22;13.48;;;2.28;;
35606;SDS011;21729;58.392;15.656;2024-03-23T02:02:50;13.02;;;2.25;;
35606;SDS011;21729;58.392;15.656;2024-03-23T02:05:19;14.60;;;2.72;;
35606;SDS011;21729;58.392;15.656;2024-03-23T02:07:45;12.85;;;2.10;;
35606;SDS011;21729;58.392;15.656;2024-03-23T02:10:12;12.35;;;2.40;;
35606;SDS011;21729;58.392;15.656;2024-03-23T02:12:38;17.48;;;2.80;;
35606;SDS011;21729;58.392;15.656;2024-03-23T02:15:05;11.57;;;2.45;;
35606;SDS011;21729;58.392;15.656;2024-03-23T02:17:34;12.75;;;2.33;;
35606;SDS011;21729;58.392;15.656;2024-03-23T02:20:03;13.43;;;2.50;;
35606;SDS011;21729;58.392;15.656;2024-03-23T02:22:35;17.02;;;2.95;;
35606;SDS011;21729;58.392;15.656;2024-03-23T02:25:05;11.60;;;2.55;;
35606;SDS011;21729;58.392;15.656;2024-03-23T02:27:31;11.00;;;2.50;;
35606;SDS011;21729;58.392;15.656;2024-03-23T02:29:59;12.80;;;2.30;;
35606;SDS011;21729;58.392;15.656;2024-03-23T02:32:26;14.27;;;2.33;;
35606;SDS011;21729;58.392;15.656;2024-03-23T02:34:53;16.30;;;2.88;;
35606;SDS011;21729;58.392;15.656;2024-03-23T02:37:19;11.70;;;2.73;;
35606;SDS011;21729;58.392;15.656;2024-03-23T02:39:46;12.87;;;2.50;;
35606;SDS011;21729;58.392;15.656;2024-03-23T02:42:13;11.50;;;2.53;;
35606;SDS011;21729;58.392;15.656;2024-03-23T02:44:42;13.77;;;2.78;;
35606;SDS011;21729;58.392;15.656;2024-03-23T02:47:08;13.27;;;3.03;;
35606;SDS011;21729;58.392;15.656;2024-03-23T02:49:35;15.05;;;2.70;;
35606;SDS011;21729;58.392;15.656;2024-03-23T02:52:01;14.95;;;2.55;;
35606;SDS011;21729;58.392;15.656;2024-03-23T02:54:28;16.73;;;2.70;;
35606;SDS011;21729;58.392;15.656;2024-03-23T02:56:54;13.00;;;2.22;;
35606;SDS011;21729;58.392;15.656;2024-03-23T02:59:22;11.35;;;2.90;;
35606;SDS011;21729;58.392;15.656;2024-03-23T03:01:48;15.37;;;3.87;;
35606;SDS011;21729;58.392;15.656;2024-03-23T03:04:15;12.23;;;2.67;;
35606;SDS011;21729;58.392;15.656;2024-03-23T03:06:41;17.25;;;2.63;;
35606;SDS011;21729;58.392;15.656;2024-03-23T03:09:08;16.10;;;3.63;;
35606;SDS011;21729;58.392;15.656;2024-03-23T03:11:34;14.05;;;2.58;;
35606;SDS011;21729;58.392;15.656;2024-03-23T03:14:01;13.35;;;2.65;;
35606;SDS011;21729;58.392;15.656;2024-03-23T03:16:29;15.07;;;3.30;;
35606;SDS011;21729;58.392;15.656;2024-03-23T03:18:56;9.57;;;2.37;;
35606;SDS011;21729;58.392;15.656;2024-03-23T03:21:22;13.88;;;2.50;;
35606;SDS011;21729;58.392;15.656;2024-03-23T03:23:49;12.05;;;2.80;;
35606;SDS011;21729;58.392;15.656;2024-03-23T03:26:15;10.98;;;2.67;;
35606;SDS011;21729;58.392;15.656;2024-03-23T03:28:42;13.48;;;2.67;;
35606;SDS011;21729;58.392;15.656;2024-03-23T03:31:09;13.43;;;3.25;;
35606;SDS011;21729;58.392;15.656;2024-03-23T03:33:37;17.65;;;2.67;;
35606;SDS011;21729;58.392;15.656;2024-03-23T03:36:03;16.57;;;3.50;;
35606;SDS011;21729;58.392;15.656;2024-03-23T03:38:31;11.10;;;2.72;;
35606;SDS011;21729;58.392;15.656;2024-03-23T03:40:57;16.02;;;3.47;;
35606;SDS011;21729;58.392;15.656;2024-03-23T03:43:24;10.05;;;2.58;;
35606;SDS011;21729;58.392;15.656;2024-03-23T03:45:53;14.10;;;2.95;;
35606;SDS011;21729;58.392;15.656;2024-03-23T03:48:20;14.48;;;2.72;;
35606;SDS011;21729;58.392;15.656;2024-03-23T03:50:47;14.32;;;3.15;;
35606;SDS011;21729;58.392;15.656;2024-03-23T03:53:15;14.60;;;3.10;;
35606;SDS011;21729;58.392;15.656;2024-03-23T03:55:41;13.53;;;2.80;;
35606;SDS011;21729;58.392;15.656;2024-03-23T03:58:08;16.70;;;3.70;;
35606;SDS011;21729;58.392;15.656;2024-03-23T04:00:35;16.55;;;3.10;;
35606;SDS011;21729;58.392;15.656;2024-03-23T04:03:02;13.95;;;2.63;;
35606;SDS011;21729;58.392;15.656;2024-03-23T04:05:29;14.02;;;3.17;;
35606;SDS011;21729;58.392;15.656;2024-03-23T04:07:57;14.32;;;3.00;;
35606;SDS011;21729;58.392;15.656;2024-03-23T04:10:23;14.55;;;3.35;;
35606;SDS011;21729;58.392;15.656;2024-03-23T04:12:52;14.10;;;3.53;;
35606;SDS011;21729;58.392;15.656;2024-03-23T04:15:19;12.20;;;3.15;;
35606;SDS011;21729;58.392;15.656;2024-03-23T04:17:46;11.38;;;2.80;;
35606;SDS011;21729;58.392;15.656;2024-03-23T04:20:12;12.05;;;3.20;;
35606;SDS011;21729;58.392;15.656;2024-03-23T04:22:42;13.77;;;2.90;;
35606;SDS011;21729;58.392;15.656;2024-03-23T04:25:09;15.15;;;3.13;;
35606;SDS011;21729;58.392;15.656;2024-03-23T04:27:36;13.45;;;3.00;;
35606;SDS011;21729;58.392;15.656;2024-03-23T04:30:03;14.25;;;2.65;;
35606;SDS011;21729;58.392;15.656;2024-03-23T04:32:35;14.88;;;3.17;;
35606;SDS011;21729;58.392;15.656;2024-03-23T04:35:01;11.95;;;2.97;;
35606;SDS011;21729;58.392;15.656;2024-03-23T04:37:30;15.75;;;3.00;;
35606;SDS011;21729;58.392;15.656;2024-03-23T04:39:58;14.35;;;2.88;;
35606;SDS011;21729;58.392;15.656;2024-03-23T04:42:27;11.90;;;2.50;;
35606;SDS011;21729;58.392;15.656;2024-03-23T04:44:54;12.25;;;3.40;;
35606;SDS011;21729;58.392;15.656;2024-03-23T04:47:21;18.45;;;3.35;;
35606;SDS011;21729;58.392;15.656;2024-03-23T04:49:48;11.67;;;2.60;;
35606;SDS011;21729;58.392;15.656;2024-03-23T04:52:16;17.92;;;3.08;;
35606;SDS011;21729;58.392;15.656;2024-03-23T04:54:43;14.93;;;3.03;;
35606;SDS011;21729;58.392;15.656;2024-03-23T04:57:11;16.90;;;3.85;;
35606;SDS011;21729;58.392;15.656;2024-03-23T04:59:38;16.05;;;3.95;;
35606;SDS011;21729;58.392;15.656;2024-03-23T05:02:06;15.00;;;2.85;;
35606;SDS011;21729;58.392;15.656;2024-03-23T05:04:32;14.32;;;2.88;;
35606;SDS011;21729;58.392;15.656;2024-03-23T05:06:59;14.10;;;3.03;;
35606;SDS011;21729;58.392;15.656;2024-03-23T05:09:24;11.85;;;3.10;;
35606;SDS011;21729;58.392;15.656;2024-03-23T05:11:55;13.93;;;3.15;;
35606;SDS011;21729;58.392;15.656;2024-03-23T05:14:21;16.65;;;3.40;;
35606;SDS011;21729;58.392;15.656;2024-03-23T05:16:49;15.23;;;3.40;;
35606;SDS011;21729;58.392;15.656;2024-03-23T05:19:15;14.43;;;3.07;;
35606;SDS011;21729;58.392;15.656;2024-03-23T05:21:42;10.37;;;2.60;;
35606;SDS011;21729;58.392;15.656;2024-03-23T05:24:08;17.83;;;2.92;;
35606;SDS011;21729;58.392;15.656;2024-03-23T05:26:37;14.73;;;3.45;;
35606;SDS011;21729;58.392;15.656;2024-03-23T05:29:03;13.68;;;3.00;;
35606;SDS011;21729;58.392;15.656;2024-03-23T05:31:32;12.60;;;2.78;;
35606;SDS011;21729;58.392;15.656;2024-03-23T05:33:59;13.07;;;2.70;;
35606;SDS011;21729;58.392;15.656;2024-03-23T05:36:26;13.77;;;3.33;;
35606;SDS011;21729;58.392;15.656;2024-03-23T05:38:52;14.43;;;3.10;;
35606;SDS011;21729;58.392;15.656;2024-03-23T05:41:19;11.55;;;2.60;;
35606;SDS011;21729;58.392;15.656;2024-03-23T05:43:45;12.68;;;2.40;;
35606;SDS011;21729;58.392;15.656;2024-03-23T05:46:12;14.40;;;2.63;;
35606;SDS011;21729;58.392;15.656;2024-03-23T05:48:38;14.77;;;3.10;;
35606;SDS011;21729;58.392;15.656;2024-03-23T05:51:07;13.43;;;2.88;;
35606;SDS011;21729;58.392;15.656;2024-03-23T05:53:33;9.82;;;2.20;;
35606;SDS011;21729;58.392;15.656;2024-03-23T05:56:01;10.35;;;2.45;;
35606;SDS011;21729;58.392;15.656;2024-03-23T05:58:29;11.80;;;2.55;;
35606;SDS011;21729;58.392;15.656;2024-03-23T06:01:01;13.95;;;2.90;;
35606;SDS011;21729;58.392;15.656;2024-03-23T06:03:28;14.55;;;2.75;;
35606;SDS011;21729;58.392;15.656;2024-03-23T06:05:56;12.60;;;2.30;;
35606;SDS011;21729;58.392;15.656;2024-03-23T06:08:23;12.10;;;2.85;;
35606;SDS011;21729;58.392;15.656;2024-03-23T06:10:50;11.18;;;2.45;;
35606;SDS011;21729;58.392;15.656;2024-03-23T06:13:17;9.73;;;2.40;;
35606;SDS011;21729;58.392;15.656;2024-03-23T06:15:44;14.10;;;2.72;;
35606;SDS011;21729;58.392;15.656;2024-03-23T06:18:11;11.75;;;2.72;;
35606;SDS011;21729;58.392;15.656;2024-03-23T06:20:38;14.48;;;2.67;;
35606;SDS011;21729;58.392;15.656;2024-03-23T06:23:05;9.77;;;2.25;;
35606;SDS011;21729;58.392;15.656;2024-03-23T06:25:33;12.18;;;2.47;;
35606;SDS011;21729;58.392;15.656;2024-03-23T06:27:59;9.90;;;2.40;;
35606;SDS011;21729;58.392;15.656;2024-03-23T06:30:28;13.48;;;2.63;;
35606;SDS011;21729;58.392;15.656;2024-03-23T06:32:54;13.10;;;2.30;;
35606;SDS011;21729;58.392;15.656;2024-03-23T06:35:21;12.82;;;2.42;;
35606;SDS011;21729;58.392;15.656;2024-03-23T06:37:47;9.88;;;2.25;;
35606;SDS011;21729;58.392;15.656;2024-03-23T06:40:14;12.93;;;2.15;;
35606;SDS011;21729;58.392;15.656;2024-03-23T06:42:42;9.75;;;2.70;;
35606;SDS011;21729;58.392;15.656;2024-03-23T06:45:09;10.93;;;2.77;;
35606;SDS011;21729;58.392;15.656;2024-03-23T06:47:35;10.40;;;2.33;;
35606;SDS011;21729;58.392;15.656;2024-03-23T06:50:02;9.85;;;2.30;;
35606;SDS011;21729;58.392;15.656;2024-03-23T06:52:29;12.05;;;2.20;;
35606;SDS011;21729;58.392;15.656;2024-03-23T06:54:56;10.40;;;2.20;;
35606;SDS011;21729;58.392;15.656;2024-03-23T06:57:22;11.68;;;2.50;;
35606;SDS011;21729;58.392;15.656;2024-03-23T06:59:51;11.65;;;2.90;;
35606;SDS011;21729;58.392;15.656;2024-03-23T07:02:17;9.77;;;2.28;;
35606;SDS011;21729;58.392;15.656;2024-03-23T07:04:44;8.70;;;2.10;;
35606;SDS011;21729;58.392;15.656;2024-03-23T07:07:10;9.32;;;2.40;;
35606;SDS011;21729;58.392;15.656;2024-03-23T07:09:37;7.88;;;2.20;;
35606;SDS011;21729;58.392;15.656;2024-03-23T07:12:04;7.65;;;2.00;;
35606;SDS011;21729;58.392;15.656;2024-03-23T07:14:31;9.60;;;2.20;;
35606;SDS011;21729;58.392;15.656;2024-03-23T07:16:58;11.33;;;2.53;;
35606;SDS011;21729;58.392;15.656;2024-03-23T07:19:26;9.23;;;2.00;;
35606;SDS011;21729;58.392;15.656;2024-03-23T07:21:52;11.90;;;2.67;;
35606;SDS011;21729;58.392;15.656;2024-03-23T07:24:19;10.25;;;2.00;;
35606;SDS011;21729;58.392;15.656;2024-03-23T07:26:45;8.48;;;1.88;;
35606;SDS011;21729;58.392;15.656;2024-03-23T07:29:13;9.73;;;2.22;;
35606;SDS011;21729;58.392;15.656;2024-03-23T07:31:39;9.65;;;2.17;;
35606;SDS011;21729;58.392;15.656;2024-03-23T07:34:08;9.85;;;3.40;;
35606;SDS011;21729;58.392;15.656;2024-03-23T07:36:34;8.73;;;3.42;;
35606;SDS011;21729;58.392;15.656;2024-03-23T07:39:01;9.05;;;3.20;;
35606;SDS011;21729;58.392;15.656;2024-03-23T07:41:27;9.93;;;3.63;;
35606;SDS011;21729;58.392;15.656;2024-03-23T07:43:54;7.55;;;3.03;;
35606;SDS011;21729;58.392;15.656;2024-03-23T07:46:20;7.43;;;2.92;;
35606;SDS011;21729;58.392;15.656;2024-03-23T07:48:47;6.82;;;3.00;;
35606;SDS011;21729;58.392;15.656;2024-03-23T07:51:16;7.38;;;2.80;;
35606;SDS011;21729;58.392;15.656;2024-03-23T07:53:44;8.50;;;3.15;;
35606;SDS011;21729;58.392;15.656;2024-03-23T07:56:11;8.18;;;2.83;;
35606;SDS011;21729;58.392;15.656;2024-03-23T07:58:40;6.90;;;2.65;;
35606;SDS011;21729;58.392;15.656;2024-03-23T08:01:07;7.40;;;2.90;;
35606;SDS011;21729;58.392;15.656;2024-03-23T08:03:35;7.80;;;2.63;;
35606;SDS011;21729;58.392;15.656;2024-03-23T08:06:06;7.95;;;2.42;;
35606;SDS011;21729;58.392;15.656;2024-03-23T08:08:35;7.37;;;2.63;;
35606;SDS011;21729;58.392;15.656;2024-03-23T08:11:01;7.57;;;2.75;;
35606;SDS011;21729;58.392;15.656;2024-03-23T08:13:29;6.13;;;2.42;;
35606;SDS011;21729;58.392;15.656;2024-03-23T08:15:58;7.85;;;2.70;;
35606;SDS011;21729;58.392;15.656;2024-03-23T08:18:26;5.88;;;2.40;;
35606;SDS011;21729;58.392;15.656;2024-03-23T08:20:55;6.15;;;2.20;;
35606;SDS011;21729;58.392;15.656;2024-03-23T08:23:23;4.70;;;2.35;;
35606;SDS011;21729;58.392;15.656;2024-03-23T08:25:51;7.85;;;2.60;;
35606;SDS011;21729;58.392;15.656;2024-03-23T08:28:18;7.68;;;2.60;;
35606;SDS011;21729;58.392;15.656;2024-03-23T08:30:44;6.30;;;2.20;;
35606;SDS011;21729;58.392;15.656;2024-03-23T08:33:11;5.32;;;2.25;;
35606;SDS011;21729;58.392;15.656;2024-03-23T08:35:38;7.17;;;2.20;;
35606;SDS011;21729;58.392;15.656;2024-03-23T08:38:07;7.43;;;2.60;;
35606;SDS011;21729;58.392;15.656;2024-03-23T08:40:33;6.20;;;2.50;;
35606;SDS011;21729;58.392;15.656;2024-03-23T08:43:01;7.50;;;2.70;;
35606;SDS011;21729;58.392;15.656;2024-03-23T08:45:27;8.90;;;2.50;;
35606;SDS011;21729;58.392;15.656;2024-03-23T08:47:54;7.13;;;2.70;;
35606;SDS011;21729;58.392;15.656;2024-03-23T08:50:20;9.73;;;2.90;;
35606;SDS011;21729;58.392;15.656;2024-03-23T08:52:48;7.38;;;2.70;;
35606;SDS011;21729;58.392;15.656;2024-03-23T08:55:16;9.18;;;2.85;;
35606;SDS011;21729;58.392;15.656;2024-03-23T08:57:43;8.50;;;2.87;;
35606;SDS011;21729;58.392;15.656;2024-03-23T09:00:11;7.28;;;2.60;;
35606;SDS011;21729;58.392;15.656;2024-03-23T09:02:39;9.20;;;2.93;;
35606;SDS011;21729;58.392;15.656;2024-03-23T09:05:06;9.45;;;2.67;;
35606;SDS011;21729;58.392;15.656;2024-03-23T09:07:33;8.00;;;2.80;;
35606;SDS011;21729;58.392;15.656;2024-03-23T09:09:59;6.93;;;2.83;;
35606;SDS011;21729;58.392;15.656;2024-03-23T09:12:26;6.57;;;1.70;;
35606;SDS011;21729;58.392;15.656;2024-03-23T09:14:52;3.35;;;1.30;;
35606;SDS011;21729;58.392;15.656;2024-03-23T09:17:21;6.93;;;2.55;;
35606;SDS011;21729;58.392;15.656;2024-03-23T09:19:47;7.47;;;2.38;;
35606;SDS011;21729;58.392;15.656;2024-03-23T09:22:14;7.53;;;2.60;;
35606;SDS011;21729;58.392;15.656;2024-03-23T09:24:40;7.22;;;2.58;;
35606;SDS011;21729;58.392;15.656;2024-03-23T09:27:07;7.35;;;2.30;;
35606;SDS011;21729;58.392;15.656;2024-03-23T09:29:33;6.70;;;2.35;;
35606;SDS011;21729;58.392;15.656;2024-03-23T09:32:00;6.45;;;2.40;;
35606;SDS011;21729;58.392;15.656;2024-03-23T09:34:28;6.18;;;2.47;;
35606;SDS011;21729;58.392;15.656;2024-03-23T09:36:55;5.45;;;2.15;;
35606;SDS011;21729;58.392;15.656;2024-03-23T09:39:21;7.28;;;2.40;;
35606;SDS011;21729;58.392;15.656;2024-03-23T09:41:48;7.10;;;2.45;;
35606;SDS011;21729;58.392;15.656;2024-03-23T09:44:14;8.02;;;2.30;;
35606;SDS011;21729;58.392;15.656;2024-03-23T09:46:41;6.75;;;2.47;;
35606;SDS011;21729;58.392;15.656;2024-03-23T09:49:07;6.27;;;2.30;;
35606;SDS011;21729;58.392;15.656;2024-03-23T09:51:37;6.05;;;1.77;;
35606;SDS011;21729;58.392;15.656;2024-03-23T09:54:03;4.30;;;1.48;;
35606;SDS011;21729;58.392;15.656;2024-03-23T09:56:30;5.33;;;1.50;;
35606;SDS011;21729;58.392;15.656;2024-03-23T09:59:02;6.67;;;1.40;;
35606;SDS011;21729;58.392;15.656;2024-03-23T10:01:29;5.38;;;1.23;;
35606;SDS011;21729;58.392;15.656;2024-03-23T10:03:55;6.32;;;1.30;;
35606;SDS011;21729;58.392;15.656;2024-03-23T10:06:23;6.68;;;1.50;;
35606;SDS011;21729;58.392;15.656;2024-03-23T10:08:51;6.67;;;1.67;;
35606;SDS011;21729;58.392;15.656;2024-03-23T10:11:20;5.18;;;1.48;;
35606;SDS011;21729;58.392;15.656;2024-03-23T10:13:46;6.68;;;1.83;;
35606;SDS011;21729;58.392;15.656;2024-03-23T10:16:20;6.78;;;1.48;;
35606;SDS011;21729;58.392;15.656;2024-03-23T10:18:47;5.82;;;1.20;;
35606;SDS011;21729;58.392;15.656;2024-03-23T10:21:14;7.57;;;1.52;;
35606;SDS011;21729;58.392;15.656;2024-03-23T10:23:41;7.57;;;1.53;;
35606;SDS011;21729;58.392;15.656;2024-03-23T10:26:15;5.75;;;1.58;;
35606;SDS011;21729;58.392;15.656;2024-03-23T10:28:54;6.80;;;1.53;;
35606;SDS011;21729;58.392;15.656;2024-03-23T10:31:26;7.15;;;1.52;;
35606;SDS011;21729;58.392;15.656;2024-03-23T10:33:52;7.65;;;1.60;;
35606;SDS011;21729;58.392;15.656;2024-03-23T10:36:20;5.20;;;1.40;;
35606;SDS011;21729;58.392;15.656;2024-03-23T10:38:47;3.80;;;1.30;;
35606;SDS011;21729;58.392;15.656;2024-03-23T10:41:17;6.70;;;1.50;;
35606;SDS011;21729;58.392;15.656;2024-03-23T10:43:44;5.95;;;1.38;;
35606;SDS011;21729;58.392;15.656;2024-03-23T10:46:12;6.80;;;1.60;;
35606;SDS011;21729;58.392;15.656;2024-03-23T10:48:39;5.30;;;1.20;;
35606;SDS011;21729;58.392;15.656;2024-03-23T10:51:06;7.82;;;1.85;;
35606;SDS011;21729;58.392;15.656;2024-03-23T10:53:34;6.25;;;1.30;;
35606;SDS011;21729;58.392;15.656;2024-03-23T10:56:02;6.18;;;1.35;;
35606;SDS011;21729;58.392;15.656;2024-03-23T10:58:31;6.15;;;1.45;;
35606;SDS011;21729;58.392;15.656;2024-03-23T11:01:03;5.63;;;1.85;;
35606;SDS011;21729;58.392;15.656;2024-03-23T11:03:30;5.45;;;1.40;;
35606;SDS011;21729;58.392;15.656;2024-03-23T11:05:58;4.00;;;1.70;;
35606;SDS011;21729;58.392;15.656;2024-03-23T11:08:32;6.10;;;1.27;;
35606;SDS011;21729;58.392;15.656;2024-03-23T11:11:19;4.35;;;1.27;;
35606;SDS011;21729;58.392;15.656;2024-03-23T11:13:48;4.18;;;1.27;;
35606;SDS011;21729;58.392;15.656;2024-03-23T11:16:16;4.78;;;1.10;;
35606;SDS011;21729;58.392;15.656;2024-03-23T11:18:46;5.27;;;1.13;;
35606;SDS011;21729;58.392;15.656;2024-03-23T11:21:51;5.60;;;1.50;;
35606;SDS011;21729;58.392;15.656;2024-03-23T11:24:17;5.97;;;1.30;;
35606;SDS011;21729;58.392;15.656;2024-03-23T11:26:45;6.50;;;1.27;;
35606;SDS011;21729;58.392;15.656;2024-03-23T11:29:13;5.40;;;1.23;;
35606;SDS011;21729;58.392;15.656;2024-03-23T11:31:45;6.20;;;1.40;;
35606;SDS011;21729;58.392;15.656;2024-03-23T11:34:11;5.13;;;1.20;;
35606;SDS011;21729;58.392;15.656;2024-03-23T11:36:39;6.30;;;1.15;;
35606;SDS011;21729;58.392;15.656;2024-03-23T11:39:11;4.07;;;1.00;;
35606;SDS011;21729;58.392;15.656;2024-03-23T11:41:47;6.38;;;1.38;;
35606;SDS011;21729;58.392;15.656;2024-03-23T11:44:16;4.70;;;1.27;;
35606;SDS011;21729;58.392;15.656;2024-03-23T11:46:44;5.45;;;1.23;;
35606;SDS011;21729;58.392;15.656;2024-03-23T11:49:22;5.53;;;1.20;;
35606;SDS011;21729;58.392;15.656;2024-03-23T11:51:50;5.85;;;1.13;;
35606;SDS011;21729;58.392;15.656;2024-03-23T11:54:20;5.63;;;1.20;;
35606;SDS011;21729;58.392;15.656;2024-03-23T11:56:57;5.40;;;1.20;;
35606;SDS011;21729;58.392;15.656;2024-03-23T11:59:31;5.57;;;1.23;;
35606;SDS011;21729;58.392;15.656;2024-03-23T12:02:05;5.70;;;1.25;;
35606;SDS011;21729;58.392;15.656;2024-03-23T12:04:32;5.68;;;1.35;;
35606;SDS011;21729;58.392;15.656;2024-03-23T12:07:14;5.95;;;1.20;;
35606;SDS011;21729;58.392;15.656;2024-03-23T12:09:41;4.00;;;1.03;;
35606;SDS011;21729;58.392;15.656;2024-03-23T12:12:11;4.05;;;1.00;;
35606;SDS011;21729;58.392;15.656;2024-03-23T12:14:41;5.43;;;1.33;;
35606;SDS011;21729;58.392;15.656;2024-03-23T12:17:09;4.80;;;1.27;;
35606;SDS011;21729;58.392;15.656;2024-03-23T12:19:36;4.55;;;1.40;;
35606;SDS011;21729;58.392;15.656;2024-03-23T12:22:03;4.43;;;1.10;;
35606;SDS011;21729;58.392;15.656;2024-03-23T12:24:30;4.30;;;1.20;;
35606;SDS011;21729;58.392;15.656;2024-03-23T12:26:59;4.75;;;1.27;;
35606;SDS011;21729;58.392;15.656;2024-03-23T12:29:27;6.10;;;1.33;;
35606;SDS011;21729;58.392;15.656;2024-03-23T12:31:56;4.80;;;1.90;;
35606;SDS011;21729;58.392;15.656;2024-03-23T12:34:24;5.73;;;1.70;;
35606;SDS011;21729;58.392;15.656;2024-03-23T12:36:51;5.85;;;1.92;;
35606;SDS011;21729;58.392;15.656;2024-03-23T12:39:17;4.68;;;1.83;;
35606;SDS011;21729;58.392;15.656;2024-03-23T12:41:45;5.32;;;1.75;;
35606;SDS011;21729;58.392;15.656;2024-03-23T12:44:11;6.18;;;1.98;;
35606;SDS011;21729;58.392;15.656;2024-03-23T12:46:39;5.57;;;1.83;;
35606;SDS011;21729;58.392;15.656;2024-03-23T12:49:07;5.70;;;1.90;;
35606;SDS011;21729;58.392;15.656;2024-03-23T12:51:34;6.97;;;1.95;;
35606;SDS011;21729;58.392;15.656;2024-03-23T12:54:00;4.57;;;1.08;;
35606;SDS011;21729;58.392;15.656;2024-03-23T12:56:27;4.65;;;1.20;;
35606;SDS011;21729;58.392;15.656;2024-03-23T12:58:54;5.00;;;1.20;;
35606;SDS011;21729;58.392;15.656;2024-03-23T13:01:22;3.97;;;1.03;;
35606;SDS011;21729;58.392;15.656;2024-03-23T13:03:48;4.47;;;1.30;;
35606;SDS011;21729;58.392;15.656;2024-03-23T13:06:17;5.93;;;1.20;;
35606;SDS011;21729;58.392;15.656;2024-03-23T13:08:44;5.50;;;1.17;;
35606;SDS011;21729;58.392;15.656;2024-03-23T13:11:11;6.38;;;1.20;;
35606;SDS011;21729;58.392;15.656;2024-03-23T13:13:39;6.25;;;1.15;;
35606;SDS011;21729;58.392;15.656;2024-03-23T13:16:07;4.22;;;1.17;;
35606;SDS011;21729;58.392;15.656;2024-03-23T13:18:33;4.38;;;1.13;;
35606;SDS011;21729;58.392;15.656;2024-03-23T13:21:00;6.40;;;1.25;;
35606;SDS011;21729;58.392;15.656;2024-03-23T13:23:27;4.95;;;1.38;;
35606;SDS011;21729;58.392;15.656;2024-03-23T13:25:55;3.55;;;1.10;;
35606;SDS011;21729;58.392;15.656;2024-03-23T13:28:22;5.13;;;1.17;;
35606;SDS011;21729;58.392;15.656;2024-03-23T13:30:49;4.45;;;1.00;;
35606;SDS011;21729;58.392;15.656;2024-03-23T13:33:16;4.95;;;1.38;;
35606;SDS011;21729;58.392;15.656;2024-03-23T13:35:52;5.40;;;1.50;;
35606;SDS011;21729;58.392;15.656;2024-03-23T13:38:19;6.80;;;1.52;;
35606;SDS011;21729;58.392;15.656;2024-03-23T13:40:52;7.43;;;1.40;;
35606;SDS011;21729;58.392;15.656;2024-03-23T13:43:19;5.17;;;1.30;;
35606;SDS011;21729;58.392;15.656;2024-03-23T13:45:47;7.70;;;1.20;;
35606;SDS011;21729;58.392;15.656;2024-03-23T13:48:15;4.75;;;1.13;;
35606;SDS011;21729;58.392;15.656;2024-03-23T13:50:43;5.05;;;1.20;;
35606;SDS011;21729;58.392;15.656;2024-03-23T13:53:09;5.72;;;1.20;;
35606;SDS011;21729;58.392;15.656;2024-03-23T13:55:36;6.45;;;1.45;;
35606;SDS011;21729;58.392;15.656;2024-03-23T13:58:03;6.63;;;1.33;;
35606;SDS011;21729;58.392;15.656;2024-03-23T14:00:30;5.55;;;1.33;;
35606;SDS011;21729;58.392;15.656;2024-03-23T14:02:57;5.90;;;1.30;;
35606;SDS011;21729;58.392;15.656;2024-03-23T14:05:24;6.13;;;1.10;;
35606;SDS011;21729;58.392;15.656;2024-03-23T14:07:50;6.15;;;1.63;;
35606;SDS011;21729;58.392;15.656;2024-03-23T14:10:17;7.20;;;1.60;;
35606;SDS011;21729;58.392;15.656;2024-03-23T14:12:43;5.97;;;1.33;;
35606;SDS011;21729;58.392;15.656;2024-03-23T14:15:12;5.80;;;1.30;;
35606;SDS011;21729;58.392;15.656;2024-03-23T14:17:38;7.22;;;1.27;;
35606;SDS011;21729;58.392;15.656;2024-03-23T14:20:05;7.00;;;1.43;;
35606;SDS011;21729;58.392;15.656;2024-03-23T14:22:34;4.82;;;1.60;;
35606;SDS011;21729;58.392;15.656;2024-03-23T14:25:01;3.73;;;1.33;;
35606;SDS011;21729;58.392;15.656;2024-03-23T14:27:28;5.40;;;1.33;;
35606;SDS011;21729;58.392;15.656;2024-03-23T14:29:55;4.80;;;1.20;;
35606;SDS011;21729;58.392;15.656;2024-03-23T14:32:25;5.10;;;1.20;;
35606;SDS011;21729;58.392;15.656;2024-03-23T14:34:54;2.80;;;1.17;;
35606;SDS011;21729;58.392;15.656;2024-03-23T14:37:23;5.68;;;1.20;;
35606;SDS011;21729;58.392;15.656;2024-03-23T14:39:50;4.25;;;1.00;;
35606;SDS011;21729;58.392;15.656;2024-03-23T14:42:16;5.22;;;1.05;;
35606;SDS011;21729;58.392;15.656;2024-03-23T14:44:43;3.40;;;1.02;;
35606;SDS011;21729;58.392;15.656;2024-03-23T14:47:09;4.68;;;1.25;;
35606;SDS011;21729;58.392;15.656;2024-03-23T14:49:39;6.13;;;1.27;;
35606;SDS011;21729;58.392;15.656;2024-03-23T14:52:05;5.67;;;1.03;;
35606;SDS011;21729;58.392;15.656;2024-03-23T14:54:32;4.03;;;1.08;;
35606;SDS011;21729;58.392;15.656;2024-03-23T14:56:58;3.93;;;1.00;;
35606;SDS011;21729;58.392;15.656;2024-03-23T14:59:25;4.10;;;1.20;;
35606;SDS011;21729;58.392;15.656;2024-03-23T15:01:51;7.13;;;1.10;;
35606;SDS011;21729;58.392;15.656;2024-03-23T15:04:18;5.82;;;1.25;;
35606;SDS011;21729;58.392;15.656;2024-03-23T15:06:46;5.53;;;1.40;;
35606;SDS011;21729;58.392;15.656;2024-03-23T15:09:15;4.93;;;1.30;;
35606;SDS011;21729;58.392;15.656;2024-03-23T15:11:41;15.23;;;1.80;;
35606;SDS011;21729;58.392;15.656;2024-03-23T15:14:08;7.40;;;1.33;;
35606;SDS011;21729;58.392;15.656;2024-03-23T15:16:36;6.00;;;1.40;;
35606;SDS011;21729;58.392;15.656;2024-03-23T15:19:07;5.43;;;1.38;;
35606;SDS011;21729;58.392;15.656;2024-03-23T15:21:33;7.53;;;1.50;;
35606;SDS011;21729;58.392;15.656;2024-03-23T15:24:02;5.57;;;1.20;;